sensor_id;sensor_type;location;lat;lon;timestamp;pressure;altitude;pressure_sealevel;temperature;humidity
40205;BME280;26963;42.666;23.366;2023-04-27T00:01:32;94626.66;;;11.98;38.73
40205;BME280;26963;42.666;23.366;2023-04-27T00:03:59;94636.31;;;11.99;39.44
40205;BME280;26963;42.666;23.366;2023-04-27T00:06:24;94629.78;;;11.91;38.82
40205;BME280;26963;42.666;23.366;2023-04-27T00:08:51;94570.78;;;11.59;38.57
40205;BME280;26963;42.666;23.366;2023-04-27T00:11:17;94579.28;;;11.53;39.25
40205;BME280;26963;42.666;23.366;2023-04-27T00:13:42;94622.78;;;11.81;38.56
40205;BME280;26963;42.666;23.366;2023-04-27T00:16:08;94589.19;;;11.52;38.61
40205;BME280;26963;42.666;23.366;2023-04-27T00:18:33;94610.06;;;11.64;38.67
40205;BME280;26963;42.666;23.366;2023-04-27T00:20:59;94633.75;;;11.71;39.48
40205;BME280;26963;42.666;23.366;2023-04-27T00:23:25;94638.50;;;11.74;39.05
40205;BME280;26963;42.666;23.366;2023-04-27T00:25:51;94617.75;;;11.57;38.73
40205;BME280;26963;42.666;23.366;2023-04-27T00:28:16;94640.03;;;11.66;38.69
40205;BME280;26963;42.666;23.366;2023-04-27T00:30:42;94639.97;;;11.57;38.89
40205;BME280;26963;42.666;23.366;2023-04-27T00:33:07;94644.22;;;11.58;39.01
40205;BME280;26963;42.666;23.366;2023-04-27T00:35:33;94608.75;;;11.30;39.03
40205;BME280;26963;42.666;23.366;2023-04-27T00:37:58;94582.63;;;11.13;39.16
40205;BME280;26963;42.666;23.366;2023-04-27T00:40:24;94627.97;;;11.32;39.46
40205;BME280;26963;42.666;23.366;2023-04-27T00:42:49;94635.72;;;11.34;39.48
40205;BME280;26963;42.666;23.366;2023-04-27T00:45:15;94633.16;;;11.29;39.28
40205;BME280;26963;42.666;23.366;2023-04-27T00:47:41;94631.63;;;11.14;39.01
40205;BME280;26963;42.666;23.366;2023-04-27T00:50:08;94623.31;;;11.01;39.49
40205;BME280;26963;42.666;23.366;2023-04-27T00:52:38;94616.50;;;10.95;39.72
40205;BME280;26963;42.666;23.366;2023-04-27T00:55:04;94633.13;;;11.06;39.88
40205;BME280;26963;42.666;23.366;2023-04-27T00:57:30;94596.63;;;10.73;40.18
40205;BME280;26963;42.666;23.366;2023-04-27T01:00:00;94649.50;;;10.90;39.99
40205;BME280;26963;42.666;23.366;2023-04-27T01:02:29;94624.97;;;10.74;40.55
40205;BME280;26963;42.666;23.366;2023-04-27T01:04:54;94626.75;;;10.65;39.88
40205;BME280;26963;42.666;23.366;2023-04-27T01:07:24;94655.09;;;10.80;40.06
40205;BME280;26963;42.666;23.366;2023-04-27T01:09:50;94651.53;;;10.71;40.24
40205;BME280;26963;42.666;23.366;2023-04-27T01:12:15;94644.59;;;10.70;40.50
40205;BME280;26963;42.666;23.366;2023-04-27T01:14:41;94665.81;;;10.66;40.62
40205;BME280;26963;42.666;23.366;2023-04-27T01:17:06;94652.06;;;10.59;40.55
40205;BME280;26963;42.666;23.366;2023-04-27T01:19:32;94637.47;;;10.51;41.03
40205;BME280;26963;42.666;23.366;2023-04-27T01:22:01;94646.00;;;10.53;40.71
40205;BME280;26963;42.666;23.366;2023-04-27T01:24:26;94585.38;;;10.07;40.92
40205;BME280;26963;42.666;23.366;2023-04-27T01:26:52;94663.03;;;10.57;41.42
40205;BME280;26963;42.666;23.366;2023-04-27T01:29:18;94650.56;;;10.39;40.89
40205;BME280;26963;42.666;23.366;2023-04-27T01:31:44;94580.00;;;9.93;40.91
40205;BME280;26963;42.666;23.366;2023-04-27T01:34:10;94664.03;;;10.34;41.08
40205;BME280;26963;42.666;23.366;2023-04-27T01:36:36;94593.88;;;9.95;41.32
40205;BME280;26963;42.666;23.366;2023-04-27T01:39:02;94655.09;;;10.24;41.15
40205;BME280;26963;42.666;23.366;2023-04-27T01:41:28;94657.28;;;10.22;41.44
40205;BME280;26963;42.666;23.366;2023-04-27T01:43:54;94666.38;;;10.21;41.38
40205;BME280;26963;42.666;23.366;2023-04-27T01:46:19;94678.38;;;10.24;41.37
40205;BME280;26963;42.666;23.366;2023-04-27T01:48:45;94584.47;;;9.70;41.60
40205;BME280;26963;42.666;23.366;2023-04-27T01:51:10;94653.31;;;10.06;41.53
40205;BME280;26963;42.666;23.366;2023-04-27T01:53:36;94674.50;;;10.16;41.74
40205;BME280;26963;42.666;23.366;2023-04-27T01:56:02;94683.50;;;10.20;41.94
40205;BME280;26963;42.666;23.366;2023-04-27T01:58:30;94620.59;;;9.81;41.96
40205;BME280;26963;42.666;23.366;2023-04-27T02:00:56;94646.91;;;9.88;41.43
40205;BME280;26963;42.666;23.366;2023-04-27T02:03:22;94667.56;;;10.15;42.03
40205;BME280;26963;42.666;23.366;2023-04-27T02:05:47;94642.28;;;9.93;41.39
40205;BME280;26963;42.666;23.366;2023-04-27T02:08:13;94617.41;;;9.79;41.81
40205;BME280;26963;42.666;23.366;2023-04-27T02:10:38;94659.31;;;9.98;41.31
40205;BME280;26963;42.666;23.366;2023-04-27T02:13:04;94694.59;;;10.14;41.71
40205;BME280;26963;42.666;23.366;2023-04-27T02:15:30;94582.94;;;9.50;41.86
40205;BME280;26963;42.666;23.366;2023-04-27T02:17:55;94665.25;;;9.94;41.63
40205;BME280;26963;42.666;23.366;2023-04-27T02:20:21;94631.47;;;9.71;41.71
40205;BME280;26963;42.666;23.366;2023-04-27T02:22:47;94675.94;;;9.94;41.71
40205;BME280;26963;42.666;23.366;2023-04-27T02:25:12;94674.38;;;9.93;41.79
40205;BME280;26963;42.666;23.366;2023-04-27T02:27:39;94673.06;;;9.91;41.65
40205;BME280;26963;42.666;23.366;2023-04-27T02:30:09;94657.78;;;9.77;42.28
40205;BME280;26963;42.666;23.366;2023-04-27T02:32:36;94681.78;;;9.96;41.41
40205;BME280;26963;42.666;23.366;2023-04-27T02:35:02;94616.28;;;9.52;41.40
40205;BME280;26963;42.666;23.366;2023-04-27T02:37:30;94695.84;;;9.88;41.68
40205;BME280;26963;42.666;23.366;2023-04-27T02:39:56;94687.44;;;9.95;41.31
40205;BME280;26963;42.666;23.366;2023-04-27T02:42:21;94681.56;;;9.93;41.91
40205;BME280;26963;42.666;23.366;2023-04-27T02:44:47;94666.53;;;9.83;42.06
40205;BME280;26963;42.666;23.366;2023-04-27T02:47:13;94659.78;;;9.72;41.60
40205;BME280;26963;42.666;23.366;2023-04-27T02:49:38;94612.78;;;9.38;41.58
40205;BME280;26963;42.666;23.366;2023-04-27T02:52:04;94696.69;;;9.84;41.77
40205;BME280;26963;42.666;23.366;2023-04-27T02:54:30;94641.91;;;9.53;41.66
40205;BME280;26963;42.666;23.366;2023-04-27T02:56:55;94683.72;;;9.77;41.20
40205;BME280;26963;42.666;23.366;2023-04-27T02:59:21;94697.78;;;9.83;41.33
40205;BME280;26963;42.666;23.366;2023-04-27T03:01:47;94663.31;;;9.67;41.88
40205;BME280;26963;42.666;23.366;2023-04-27T03:04:12;94679.13;;;9.63;41.59
40205;BME280;26963;42.666;23.366;2023-04-27T03:06:41;94689.25;;;9.67;41.21
40205;BME280;26963;42.666;23.366;2023-04-27T03:09:07;94693.56;;;9.62;41.29
40205;BME280;26963;42.666;23.366;2023-04-27T03:11:34;94712.69;;;9.70;41.83
40205;BME280;26963;42.666;23.366;2023-04-27T03:14:00;94693.00;;;9.66;41.65
40205;BME280;26963;42.666;23.366;2023-04-27T03:16:26;94703.66;;;9.66;41.63
40205;BME280;26963;42.666;23.366;2023-04-27T03:18:54;94697.47;;;9.51;41.23
40205;BME280;26963;42.666;23.366;2023-04-27T03:21:19;94697.19;;;9.53;41.20
40205;BME280;26963;42.666;23.366;2023-04-27T03:23:45;94700.13;;;9.51;41.37
40205;BME280;26963;42.666;23.366;2023-04-27T03:26:12;94709.19;;;9.55;41.46
40205;BME280;26963;42.666;23.366;2023-04-27T03:28:38;94715.53;;;9.59;41.12
40205;BME280;26963;42.666;23.366;2023-04-27T03:31:09;94715.59;;;9.54;41.41
40205;BME280;26963;42.666;23.366;2023-04-27T03:33:35;94688.09;;;9.35;40.93
40205;BME280;26963;42.666;23.366;2023-04-27T03:36:01;94708.75;;;9.48;41.88
40205;BME280;26963;42.666;23.366;2023-04-27T03:38:27;94723.44;;;9.65;41.77
40205;BME280;26963;42.666;23.366;2023-04-27T03:40:56;94729.16;;;9.58;41.36
40205;BME280;26963;42.666;23.366;2023-04-27T03:43:22;94715.53;;;9.59;41.12
40205;BME280;26963;42.666;23.366;2023-04-27T03:45:48;94708.44;;;9.50;41.26
40205;BME280;26963;42.666;23.366;2023-04-27T03:48:14;94719.19;;;9.63;41.20
40205;BME280;26963;42.666;23.366;2023-04-27T03:50:40;94715.09;;;9.52;40.85
40205;BME280;26963;42.666;23.366;2023-04-27T03:53:06;94666.91;;;9.24;42.14
40205;BME280;26963;42.666;23.366;2023-04-27T03:55:32;94647.28;;;9.15;41.62
40205;BME280;26963;42.666;23.366;2023-04-27T03:58:00;94667.41;;;9.26;41.12
40205;BME280;26963;42.666;23.366;2023-04-27T04:00:26;94714.53;;;9.55;40.91
40205;BME280;26963;42.666;23.366;2023-04-27T04:02:51;94643.69;;;9.06;40.91
40205;BME280;26963;42.666;23.366;2023-04-27T04:05:17;94734.50;;;9.58;41.34
40205;BME280;26963;42.666;23.366;2023-04-27T04:07:43;94723.19;;;9.47;42.20
40205;BME280;26963;42.666;23.366;2023-04-27T04:10:09;94749.16;;;9.79;41.77
40205;BME280;26963;42.666;23.366;2023-04-27T04:12:35;94770.50;;;9.99;41.05
40205;BME280;26963;42.666;23.366;2023-04-27T04:15:04;94770.09;;;10.05;40.99
40205;BME280;26963;42.666;23.366;2023-04-27T04:17:30;94724.72;;;9.86;40.44
40205;BME280;26963;42.666;23.366;2023-04-27T04:20:01;94789.47;;;10.16;40.39
40205;BME280;26963;42.666;23.366;2023-04-27T04:22:26;94741.88;;;9.99;40.04
40205;BME280;26963;42.666;23.366;2023-04-27T04:24:52;94781.25;;;10.26;39.42
40205;BME280;26963;42.666;23.366;2023-04-27T04:27:17;94771.13;;;10.23;40.14
40205;BME280;26963;42.666;23.366;2023-04-27T04:29:43;94763.63;;;10.25;39.76
40205;BME280;26963;42.666;23.366;2023-04-27T04:32:08;94788.47;;;10.45;39.08
40205;BME280;26963;42.666;23.366;2023-04-27T04:34:36;94779.94;;;10.43;38.74
40205;BME280;26963;42.666;23.366;2023-04-27T04:37:02;94711.69;;;9.99;38.54
40205;BME280;26963;42.666;23.366;2023-04-27T04:39:32;94786.59;;;10.59;38.79
40205;BME280;26963;42.666;23.366;2023-04-27T04:42:00;94775.41;;;10.57;38.44
40205;BME280;26963;42.666;23.366;2023-04-27T04:44:28;94732.97;;;10.37;38.80
40205;BME280;26963;42.666;23.366;2023-04-27T04:46:53;94792.97;;;10.77;38.26
40205;BME280;26963;42.666;23.366;2023-04-27T04:49:19;94778.78;;;10.77;37.80
40205;BME280;26963;42.666;23.366;2023-04-27T04:51:45;94772.63;;;10.76;37.94
40205;BME280;26963;42.666;23.366;2023-04-27T04:54:10;94719.31;;;10.38;38.08
40205;BME280;26963;42.666;23.366;2023-04-27T04:56:36;94800.31;;;11.00;37.99
40205;BME280;26963;42.666;23.366;2023-04-27T04:59:02;94576.00;;;9.49;37.44
40205;BME280;26963;42.666;23.366;2023-04-27T05:01:31;94757.38;;;10.63;37.60
40205;BME280;26963;42.666;23.366;2023-04-27T05:03:56;94799.91;;;10.79;37.12
40205;BME280;26963;42.666;23.366;2023-04-27T05:06:22;94751.72;;;10.51;37.53
40205;BME280;26963;42.666;23.366;2023-04-27T05:08:47;94629.13;;;9.83;37.26
40205;BME280;26963;42.666;23.366;2023-04-27T05:11:13;94825.78;;;11.25;36.87
40205;BME280;26963;42.666;23.366;2023-04-27T05:14:00;94805.25;;;11.20;37.08
40205;BME280;26963;42.666;23.366;2023-04-27T05:16:44;94831.03;;;11.44;37.47
40205;BME280;26963;42.666;23.366;2023-04-27T05:19:12;94821.59;;;11.61;37.12
40205;BME280;26963;42.666;23.366;2023-04-27T05:21:43;94794.50;;;11.48;36.78
40205;BME280;26963;42.666;23.366;2023-04-27T05:24:08;94813.50;;;11.74;36.34
40205;BME280;26963;42.666;23.366;2023-04-27T05:26:35;94743.03;;;11.37;36.53
40205;BME280;26963;42.666;23.366;2023-04-27T05:29:00;94833.22;;;11.93;36.35
40205;BME280;26963;42.666;23.366;2023-04-27T05:31:26;94824.78;;;11.85;36.01
40205;BME280;26963;42.666;23.366;2023-04-27T05:33:52;94839.34;;;11.93;35.89
40205;BME280;26963;42.666;23.366;2023-04-27T05:36:17;94743.63;;;11.34;36.42
40205;BME280;26963;42.666;23.366;2023-04-27T05:38:43;94819.75;;;11.70;35.69
40205;BME280;26963;42.666;23.366;2023-04-27T05:41:08;94828.09;;;11.82;36.09
40205;BME280;26963;42.666;23.366;2023-04-27T05:43:34;94815.81;;;11.67;36.00
40205;BME280;26963;42.666;23.366;2023-04-27T05:46:02;94832.16;;;11.80;35.95
40205;BME280;26963;42.666;23.366;2023-04-27T05:48:30;94840.00;;;11.76;35.97
40205;BME280;26963;42.666;23.366;2023-04-27T05:51:02;94766.47;;;11.32;36.53
40205;BME280;26963;42.666;23.366;2023-04-27T05:53:32;94829.69;;;11.69;36.56
40205;BME280;26963;42.666;23.366;2023-04-27T05:56:03;94843.53;;;11.85;36.83
40205;BME280;26963;42.666;23.366;2023-04-27T05:58:32;94836.91;;;11.83;36.72
40205;BME280;26963;42.666;23.366;2023-04-27T06:01:00;94823.91;;;11.76;36.71
40205;BME280;26963;42.666;23.366;2023-04-27T06:03:28;94844.94;;;11.97;36.67
40205;BME280;26963;42.666;23.366;2023-04-27T06:05:55;94848.13;;;11.99;36.22
40205;BME280;26963;42.666;23.366;2023-04-27T06:08:21;94820.91;;;11.91;36.41
40205;BME280;26963;42.666;23.366;2023-04-27T06:10:47;94818.72;;;11.94;36.16
40205;BME280;26963;42.666;23.366;2023-04-27T06:13:12;94803.63;;;11.98;36.29
40205;BME280;26963;42.666;23.366;2023-04-27T06:15:38;94837.09;;;12.23;36.31
40205;BME280;26963;42.666;23.366;2023-04-27T06:18:03;94842.78;;;12.44;36.13
40205;BME280;26963;42.666;23.366;2023-04-27T06:20:30;94860.56;;;12.63;35.69
40205;BME280;26963;42.666;23.366;2023-04-27T06:22:56;94841.03;;;12.71;35.50
40205;BME280;26963;42.666;23.366;2023-04-27T06:25:22;94842.81;;;12.84;35.34
40205;BME280;26963;42.666;23.366;2023-04-27T06:27:47;94784.44;;;12.59;35.23
40205;BME280;26963;42.666;23.366;2023-04-27T06:30:13;94662.63;;;11.97;34.81
40205;BME280;26963;42.666;23.366;2023-04-27T06:32:39;94844.94;;;13.28;34.84
40205;BME280;26963;42.666;23.366;2023-04-27T06:35:05;94833.41;;;13.36;35.07
40205;BME280;26963;42.666;23.366;2023-04-27T06:37:30;94851.03;;;13.51;34.51
40205;BME280;26963;42.666;23.366;2023-04-27T06:39:56;94776.16;;;13.18;34.45
40205;BME280;26963;42.666;23.366;2023-04-27T06:42:22;94771.75;;;13.31;34.04
40205;BME280;26963;42.666;23.366;2023-04-27T06:44:47;94833.19;;;13.81;33.90
40205;BME280;26963;42.666;23.366;2023-04-27T06:47:13;94819.94;;;13.94;33.75
40205;BME280;26963;42.666;23.366;2023-04-27T06:49:57;94819.41;;;14.62;32.34
40205;BME280;26963;42.666;23.366;2023-04-27T06:52:26;94812.66;;;15.33;31.39
40205;BME280;26963;42.666;23.366;2023-04-27T06:54:51;94815.63;;;16.34;30.39
40205;BME280;26963;42.666;23.366;2023-04-27T06:57:17;94827.16;;;18.13;28.01
40205;BME280;26963;42.666;23.366;2023-04-27T06:59:42;94791.16;;;19.13;26.10
40205;BME280;26963;42.666;23.366;2023-04-27T07:02:08;94814.34;;;19.78;25.34
40205;BME280;26963;42.666;23.366;2023-04-27T07:04:33;94811.66;;;19.62;24.84
40205;BME280;26963;42.666;23.366;2023-04-27T07:07:00;94815.94;;;19.63;25.16
40205;BME280;26963;42.666;23.366;2023-04-27T07:09:26;94800.19;;;19.53;25.18
40205;BME280;26963;42.666;23.366;2023-04-27T07:11:55;94793.75;;;20.13;24.50
40205;BME280;26963;42.666;23.366;2023-04-27T07:14:25;94791.03;;;20.72;23.86
40205;BME280;26963;42.666;23.366;2023-04-27T07:16:51;94804.59;;;22.48;21.77
40205;BME280;26963;42.666;23.366;2023-04-27T07:19:17;94737.19;;;23.94;19.92
40205;BME280;26963;42.666;23.366;2023-04-27T07:21:42;94803.19;;;25.93;18.29
40205;BME280;26963;42.666;23.366;2023-04-27T07:24:08;94800.88;;;25.63;18.07
40205;BME280;26963;42.666;23.366;2023-04-27T07:26:33;94802.84;;;25.51;18.17
40205;BME280;26963;42.666;23.366;2023-04-27T07:28:59;94756.53;;;24.59;18.90
40205;BME280;26963;42.666;23.366;2023-04-27T07:31:24;94738.59;;;23.70;19.48
40205;BME280;26963;42.666;23.366;2023-04-27T07:33:50;94779.59;;;24.58;19.03
40205;BME280;26963;42.666;23.366;2023-04-27T07:36:17;94797.19;;;24.57;18.82
40205;BME280;26963;42.666;23.366;2023-04-27T07:38:42;94803.16;;;23.97;19.11
40205;BME280;26963;42.666;23.366;2023-04-27T07:41:08;94800.81;;;23.43;19.67
40205;BME280;26963;42.666;23.366;2023-04-27T07:43:34;94723.50;;;22.42;20.52
40205;BME280;26963;42.666;23.366;2023-04-27T07:46:00;94802.53;;;22.76;20.44
40205;BME280;26963;42.666;23.366;2023-04-27T07:48:26;94753.63;;;22.22;20.10
40205;BME280;26963;42.666;23.366;2023-04-27T07:50:55;94792.47;;;21.85;20.76
40205;BME280;26963;42.666;23.366;2023-04-27T07:53:22;94648.19;;;20.31;21.12
40205;BME280;26963;42.666;23.366;2023-04-27T07:55:47;94796.91;;;20.97;21.77
40205;BME280;26963;42.666;23.366;2023-04-27T07:58:13;94811.28;;;20.74;22.13
40205;BME280;26963;42.666;23.366;2023-04-27T08:00:38;94775.88;;;20.51;22.82
40205;BME280;26963;42.666;23.366;2023-04-27T08:03:04;94801.34;;;22.09;20.92
40205;BME280;26963;42.666;23.366;2023-04-27T08:05:30;94783.84;;;24.38;18.59
40205;BME280;26963;42.666;23.366;2023-04-27T08:07:55;94788.28;;;26.09;16.86
40205;BME280;26963;42.666;23.366;2023-04-27T08:10:21;94777.75;;;26.89;15.54
40205;BME280;26963;42.666;23.366;2023-04-27T08:12:47;94801.91;;;26.41;16.45
40205;BME280;26963;42.666;23.366;2023-04-27T08:15:13;94800.81;;;24.83;17.47
40205;BME280;26963;42.666;23.366;2023-04-27T08:17:38;94791.47;;;25.78;16.78
40205;BME280;26963;42.666;23.366;2023-04-27T08:20:08;94813.13;;;26.79;15.98
40205;BME280;26963;42.666;23.366;2023-04-27T08:22:36;94793.78;;;27.01;15.59
40205;BME280;26963;42.666;23.366;2023-04-27T08:25:02;94790.31;;;25.54;16.41
40205;BME280;26963;42.666;23.366;2023-04-27T08:27:29;94793.63;;;24.46;17.20
40205;BME280;26963;42.666;23.366;2023-04-27T08:29:55;94800.31;;;23.82;18.13
40205;BME280;26963;42.666;23.366;2023-04-27T08:32:20;94781.31;;;25.71;16.92
40205;BME280;26963;42.666;23.366;2023-04-27T08:34:46;94795.41;;;26.88;15.79
40205;BME280;26963;42.666;23.366;2023-04-27T08:37:12;94781.66;;;24.87;17.12
40205;BME280;26963;42.666;23.366;2023-04-27T08:39:37;94805.72;;;23.75;17.93
40205;BME280;26963;42.666;23.366;2023-04-27T08:42:12;94738.84;;;22.99;18.68
40205;BME280;26963;42.666;23.366;2023-04-27T08:44:39;94775.66;;;23.16;18.57
40205;BME280;26963;42.666;23.366;2023-04-27T08:47:06;94803.50;;;22.26;19.43
40205;BME280;26963;42.666;23.366;2023-04-27T08:49:32;94803.78;;;21.60;20.22
40205;BME280;26963;42.666;23.366;2023-04-27T08:52:00;94792.00;;;21.06;20.89
40205;BME280;26963;42.666;23.366;2023-04-27T08:54:26;94808.34;;;20.83;21.73
40205;BME280;26963;42.666;23.366;2023-04-27T08:56:52;94795.47;;;20.60;22.14
40205;BME280;26963;42.666;23.366;2023-04-27T08:59:17;94788.25;;;20.91;21.46
40205;BME280;26963;42.666;23.366;2023-04-27T09:01:47;94794.31;;;20.42;22.16
40205;BME280;26963;42.666;23.366;2023-04-27T09:04:13;94790.94;;;19.90;22.70
40205;BME280;26963;42.666;23.366;2023-04-27T09:06:40;94807.22;;;19.54;23.01
40205;BME280;26963;42.666;23.366;2023-04-27T09:09:05;94809.66;;;19.59;23.14
40205;BME280;26963;42.666;23.366;2023-04-27T09:11:37;94814.22;;;19.55;23.34
40205;BME280;26963;42.666;23.366;2023-04-27T09:14:23;94803.25;;;19.67;24.02
40205;BME280;26963;42.666;23.366;2023-04-27T09:16:56;94803.06;;;19.76;23.60
40205;BME280;26963;42.666;23.366;2023-04-27T09:19:30;94796.56;;;19.81;23.01
40205;BME280;26963;42.666;23.366;2023-04-27T09:22:09;94792.34;;;19.48;23.36
40205;BME280;26963;42.666;23.366;2023-04-27T09:24:49;94768.03;;;19.03;23.78
40205;BME280;26963;42.666;23.366;2023-04-27T09:27:19;94727.63;;;18.66;24.37
40205;BME280;26963;42.666;23.366;2023-04-27T09:29:46;94774.34;;;18.92;24.18
40205;BME280;26963;42.666;23.366;2023-04-27T09:32:18;94728.41;;;18.67;24.49
40205;BME280;26963;42.666;23.366;2023-04-27T09:34:45;94730.72;;;18.36;24.30
40205;BME280;26963;42.666;23.366;2023-04-27T09:37:11;94751.22;;;18.21;24.99
40205;BME280;26963;42.666;23.366;2023-04-27T09:39:37;94795.84;;;18.12;25.21
40205;BME280;26963;42.666;23.366;2023-04-27T09:42:03;94776.91;;;17.99;24.76
40205;BME280;26963;42.666;23.366;2023-04-27T09:44:30;94786.16;;;17.98;24.74
40205;BME280;26963;42.666;23.366;2023-04-27T09:47:00;94753.94;;;17.81;25.69
40205;BME280;26963;42.666;23.366;2023-04-27T09:49:27;94779.63;;;17.99;25.98
40205;BME280;26963;42.666;23.366;2023-04-27T09:51:56;94760.56;;;18.24;25.08
40205;BME280;26963;42.666;23.366;2023-04-27T09:54:31;94764.59;;;18.30;25.34
40205;BME280;26963;42.666;23.366;2023-04-27T09:59:55;94771.59;;;18.31;25.03
40205;BME280;26963;42.666;23.366;2023-04-27T10:02:26;94751.91;;;18.18;25.09
40205;BME280;26963;42.666;23.366;2023-04-27T10:05:20;94760.03;;;18.18;24.83
40205;BME280;26963;42.666;23.366;2023-04-27T10:07:51;94755.50;;;17.94;25.15
40205;BME280;26963;42.666;23.366;2023-04-27T10:10:17;94752.91;;;17.85;25.00
40205;BME280;26963;42.666;23.366;2023-04-27T10:12:54;94751.94;;;17.65;25.26
40205;BME280;26963;42.666;23.366;2023-04-27T10:15:24;94652.66;;;16.75;25.56
40205;BME280;26963;42.666;23.366;2023-04-27T10:17:51;94769.47;;;17.31;25.78
40205;BME280;26963;42.666;23.366;2023-04-27T10:20:29;94760.53;;;17.30;26.28
40205;BME280;26963;42.666;23.366;2023-04-27T10:22:55;94751.31;;;17.31;25.94
40205;BME280;26963;42.666;23.366;2023-04-27T10:25:24;94750.88;;;17.29;26.57
40205;BME280;26963;42.666;23.366;2023-04-27T10:27:58;94697.81;;;17.00;26.14
40205;BME280;26963;42.666;23.366;2023-04-27T10:30:36;94754.00;;;17.43;25.71
40205;BME280;26963;42.666;23.366;2023-04-27T10:33:08;94768.41;;;17.48;25.83
40205;BME280;26963;42.666;23.366;2023-04-27T10:38:10;94706.56;;;17.34;25.53
40205;BME280;26963;42.666;23.366;2023-04-27T10:40:39;94720.78;;;17.84;25.92
40205;BME280;26963;42.666;23.366;2023-04-27T10:45:34;94754.25;;;18.48;26.08
40205;BME280;26963;42.666;23.366;2023-04-27T10:48:00;94746.22;;;18.52;25.71
40205;BME280;26963;42.666;23.366;2023-04-27T10:50:26;94742.53;;;18.44;24.89
40205;BME280;26963;42.666;23.366;2023-04-27T10:52:52;94746.63;;;18.38;24.50
40205;BME280;26963;42.666;23.366;2023-04-27T10:55:21;94748.66;;;18.13;24.44
40205;BME280;26963;42.666;23.366;2023-04-27T10:57:52;94700.25;;;17.42;24.93
40205;BME280;26963;42.666;23.366;2023-04-27T11:00:44;94734.09;;;17.76;25.03
40205;BME280;26963;42.666;23.366;2023-04-27T11:05:36;94740.84;;;18.23;25.66
40205;BME280;26963;42.666;23.366;2023-04-27T11:08:09;94743.75;;;18.31;24.50
40205;BME280;26963;42.666;23.366;2023-04-27T11:10:43;94744.56;;;18.19;24.40
40205;BME280;26963;42.666;23.366;2023-04-27T11:13:14;94726.81;;;18.05;24.35
40205;BME280;26963;42.666;23.366;2023-04-27T11:18:16;94691.25;;;17.79;25.16
40205;BME280;26963;42.666;23.366;2023-04-27T11:20:43;94739.91;;;18.03;24.10
40205;BME280;26963;42.666;23.366;2023-04-27T11:23:10;94731.00;;;17.90;23.60
40205;BME280;26963;42.666;23.366;2023-04-27T11:25:36;94751.31;;;17.97;23.54
40205;BME280;26963;42.666;23.366;2023-04-27T11:28:02;94761.38;;;17.84;23.93
40205;BME280;26963;42.666;23.366;2023-04-27T11:30:28;94754.19;;;17.63;24.43
40205;BME280;26963;42.666;23.366;2023-04-27T11:32:54;94763.00;;;17.48;24.79
40205;BME280;26963;42.666;23.366;2023-04-27T11:35:31;94763.59;;;17.41;24.90
40205;BME280;26963;42.666;23.366;2023-04-27T11:38:01;94744.31;;;17.30;25.08
40205;BME280;26963;42.666;23.366;2023-04-27T11:40:30;94733.97;;;17.32;24.96
40205;BME280;26963;42.666;23.366;2023-04-27T11:43:00;94743.53;;;17.42;24.82
40205;BME280;26963;42.666;23.366;2023-04-27T11:45:28;94732.84;;;17.21;24.91
40205;BME280;26963;42.666;23.366;2023-04-27T11:47:57;94702.09;;;17.01;25.15
40205;BME280;26963;42.666;23.366;2023-04-27T11:50:26;94743.06;;;17.40;25.01
40205;BME280;26963;42.666;23.366;2023-04-27T11:52:52;94755.34;;;17.50;25.04
40205;BME280;26963;42.666;23.366;2023-04-27T11:55:20;94769.06;;;17.69;25.16
40205;BME280;26963;42.666;23.366;2023-04-27T11:57:46;94767.94;;;17.70;25.26
40205;BME280;26963;42.666;23.366;2023-04-27T12:00:12;94773.44;;;17.74;25.23
40205;BME280;26963;42.666;23.366;2023-04-27T12:02:39;94762.97;;;17.72;25.18
40205;BME280;26963;42.666;23.366;2023-04-27T12:05:05;94757.81;;;17.67;25.07
40205;BME280;26963;42.666;23.366;2023-04-27T12:07:32;94594.16;;;16.55;24.92
40205;BME280;26963;42.666;23.366;2023-04-27T12:10:00;94772.25;;;17.59;24.53
40205;BME280;26963;42.666;23.366;2023-04-27T12:12:26;94753.78;;;17.49;24.79
40205;BME280;26963;42.666;23.366;2023-04-27T12:14:52;94713.94;;;17.08;24.91
40205;BME280;26963;42.666;23.366;2023-04-27T12:17:18;94767.75;;;17.26;25.00
40205;BME280;26963;42.666;23.366;2023-04-27T12:19:43;94760.56;;;17.05;25.19
40205;BME280;26963;42.666;23.366;2023-04-27T12:22:09;94778.47;;;17.22;25.23
40205;BME280;26963;42.666;23.366;2023-04-27T12:24:35;94769.56;;;17.09;26.07
40205;BME280;26963;42.666;23.366;2023-04-27T12:27:01;94758.22;;;17.04;26.23
40205;BME280;26963;42.666;23.366;2023-04-27T12:29:28;94786.69;;;17.26;26.05
40205;BME280;26963;42.666;23.366;2023-04-27T12:31:54;94769.13;;;17.20;26.09
40205;BME280;26963;42.666;23.366;2023-04-27T12:34:20;94790.28;;;17.30;26.03
40205;BME280;26963;42.666;23.366;2023-04-27T12:36:45;94762.13;;;17.31;25.52
40205;BME280;26963;42.666;23.366;2023-04-27T12:39:21;94751.31;;;17.31;25.16
40205;BME280;26963;42.666;23.366;2023-04-27T12:41:52;94770.34;;;17.35;25.14
40205;BME280;26963;42.666;23.366;2023-04-27T12:44:19;94680.00;;;16.61;25.47
40205;BME280;26963;42.666;23.366;2023-04-27T12:46:52;94783.09;;;17.09;25.17
40205;BME280;26963;42.666;23.366;2023-04-27T12:49:17;94741.38;;;16.73;25.49
40205;BME280;26963;42.666;23.366;2023-04-27T12:51:43;94787.34;;;16.98;26.02
40205;BME280;26963;42.666;23.366;2023-04-27T12:54:21;94702.16;;;16.42;26.72
40205;BME280;26963;42.666;23.366;2023-04-27T12:56:46;94764.38;;;16.92;26.89
40205;BME280;26963;42.666;23.366;2023-04-27T12:59:12;94741.16;;;16.91;26.29
40205;BME280;26963;42.666;23.366;2023-04-27T13:01:37;94789.16;;;17.19;26.13
40205;BME280;26963;42.666;23.366;2023-04-27T13:04:03;94773.03;;;17.10;25.74
40205;BME280;26963;42.666;23.366;2023-04-27T13:06:30;94791.09;;;17.18;25.61